Flight Track Log - Related Links

Times and Time Zones

All times are in EDT time to prevent confusion due to time zone crossing. See the CES5527 flight status page for this flight to view local times or setup timezone preferences in your user account.

Time Position Orientation Groundspeed Altitude Reporting Facility
EDT Latitude Longitude Course Direction KTS MPH feet Rate Location/Type
Sun 07:35:37 AM 31.2480 121.1160 359° North 278 320 10,000  Level FlightAware ADS-B
Sun 07:36:32 AM 31.3210 121.1160 360° North 287 330 10,000  Level FlightAware ADS-B
Sun 07:37:02 AM 31.3610 121.1160 360° North 278 320 10,000 343 Level FlightAware ADS-B
Sun 07:37:42 AM 31.4140 121.1160 360° North 288 331 10,400 1,407 Climbing FlightAware ADS-B
Sun 07:39:27 AM 31.5670 121.0540 341° North 358 412 13,400 1,862 Climbing FlightAware ADS-B
Sun 07:40:07 AM 31.6280 121.0220 336° Northwest 373 429 14,900 1,059 Climbing FlightAware ADS-B
Sun 07:40:52 AM 31.6900 120.9880 335° Northwest 373 429 14,900  Level FlightAware ADS-B
Sun 07:41:22 AM 31.7290 120.9660 334° Northwest 373 429 14,900  Level FlightAware ADS-B
Sun 07:42:02 AM 31.7830 120.9370 335° Northwest 373 429 14,900 1,223 Level FlightAware ADS-B
Sun 07:44:00 AM 31.8557 120.7514 295° West  Level Estimated
Sun 07:45:00 AM 31.8925 120.6570 295° West  Level Estimated
Sun 07:46:00 AM 31.9293 120.5624 295° West  Level Estimated
Sun 07:47:00 AM 31.9660 120.4678 295° West  Level Estimated
Sun 07:48:00 AM 32.0026 120.3731 295° West  Level Estimated
Sun 07:49:00 AM 32.0392 120.2783 294° West  Level Estimated
Sun 07:50:00 AM 32.0756 120.1834 294° West  Level Estimated
Sun 07:50:07 AM 32.2240 120.0820 294° West 421 484 25,600  Level FlightAware ADS-B
Sun 07:50:57 AM 32.2330 119.9730 276° West 421 484 25,600  Level FlightAware ADS-B
Sun 07:52:27 AM 32.2410 119.7650 273° West 422 486 25,600  Level FlightAware ADS-B
Sun 07:53:02 AM 32.2230 119.6890 254° West 426 490 25,600  Level FlightAware ADS-B
Sun 07:53:47 AM 32.1960 119.5910 252° West 426 490 25,600  Level FlightAware ADS-B
Sun 07:54:22 AM 32.1740 119.5070 253° West 425 489 25,600  Level FlightAware ADS-B
Sun 07:54:57 AM 32.1530 119.4280 253° West 422 486 25,600  Level FlightAware ADS-B
Sun 07:55:27 AM 32.1370 119.3650 253° West 422 486 25,600  Level FlightAware ADS-B
Sun 07:57:07 AM 32.0780 119.1420 253° West 427 491 25,600  Level FlightAware ADS-B
Sun 07:58:52 AM 32.0220 118.9380 297° West 427 491 25,600  Level FlightAware ADS-B
Sun 07:59:00 AM 32.1537 118.9672 297° West  Level Estimated
Sun 07:59:32 AM 32.0010 118.8630 252° West 427 491 25,600  Level FlightAware ADS-B
Sun 08:00:12 AM 31.9800 118.7880 252° West 427 491 25,600  Level FlightAware ADS-B
Sun 08:02:00 AM 32.0571 118.6241 299° West  Level Estimated
Sun 08:03:00 AM 32.0998 118.5329 299° West  Level Estimated
Sun 08:04:00 AM 32.1424 118.4417 299° West  Level Estimated
Sun 08:05:00 AM 32.1850 118.3503 299° West  Level Estimated
Sun 08:06:00 AM 32.2276 118.2589 299° West  Level Estimated
Sun 08:07:00 AM 32.2700 118.1674 299° West  Level Estimated
Sun 08:08:00 AM 32.3124 118.0757 299° West  Level Estimated
Sun 08:09:00 AM 32.3548 117.9840 299° West  Level Estimated
Sun 08:10:00 AM 32.3970 117.8923 299° West  Level Estimated
Sun 08:11:00 AM 32.4392 117.8004 299° West  Level Estimated
Sun 08:12:00 AM 32.4813 117.7085 299° West  Level Estimated
Sun 08:13:00 AM 32.5234 117.6164 298° West  Level Estimated
Sun 08:14:00 AM 32.5654 117.5243 298° West  Level Estimated
Sun 08:15:00 AM 32.6073 117.4321 298° West  Level Estimated
Sun 08:16:00 AM 32.6492 117.3398 298° West  Level Estimated
Sun 08:17:00 AM 32.6910 117.2474 298° West  Level Estimated
Sun 08:18:00 AM 32.7327 117.1550 298° West  Level Estimated
Sun 08:19:00 AM 32.7744 117.0624 298° West  Level Estimated
Sun 08:20:00 AM 32.8160 116.9698 298° West  Level Estimated
Sun 08:21:00 AM 32.8575 116.8770 298° West  Level Estimated
Sun 08:22:00 AM 32.8989 116.7842 298° West  Level Estimated
Sun 08:23:00 AM 32.9403 116.6913 298° West  Level Estimated
Sun 08:24:00 AM 32.9816 116.5983 298° West  Level Estimated
Sun 08:25:00 AM 33.0229 116.5053 298° West  Level Estimated
Sun 08:26:00 AM 33.0641 116.4121 298° West  Level Estimated
Sun 08:27:00 AM 33.1052 116.3188 298° West  Level Estimated
Sun 08:28:00 AM 33.1462 116.2255 298° West  Level Estimated
Sun 08:29:00 AM 33.1872 116.1321 298° West  Level Estimated
Sun 08:30:00 AM 33.2281 116.0386 298° West  Level Estimated
Sun 08:31:00 AM 33.2689 115.9450 298° West  Level Estimated
Sun 08:32:00 AM 33.3097 115.8513 298° West  Level Estimated
Sun 08:33:00 AM 33.3504 115.7575 297° West  Level Estimated
Sun 08:34:00 AM 33.3910 115.6637 297° West  Level Estimated
Sun 08:35:00 AM 33.4315 115.5697 297° West  Level Estimated
Sun 08:36:00 AM 33.4720 115.4757 297° West  Level Estimated
Sun 08:37:00 AM 33.5124 115.3816 297° West  Level Estimated
Sun 08:38:00 AM 33.5527 115.2873 297° West  Level Estimated
Sun 08:39:00 AM 33.5930 115.1930 297° West  Level Estimated
Sun 08:40:00 AM 33.6332 115.0986 297° West  Level Estimated
Sun 08:41:00 AM 33.6733 115.0042 297° West  Level Estimated
Sun 08:42:00 AM 33.7134 114.9096 297° West  Level Estimated
Sun 08:43:00 AM 33.7533 114.8150 297° West  Level Estimated
Sun 08:44:00 AM 33.7932 114.7202 297° West  Level Estimated
Sun 08:45:00 AM 33.8331 114.6254 297° West  Level Estimated
Sun 08:46:00 AM 33.8728 114.5305 297° West  Level Estimated
Sun 08:47:00 AM 33.9125 114.4355 297° West  Level Estimated
Sun 08:48:00 AM 33.9521 114.3404 297° West  Level Estimated
Sun 08:49:00 AM 33.9917 114.2452 297° West  Level Estimated
Sun 08:50:00 AM 34.0311 114.1499 297° West  Level Estimated
Sun 08:51:00 AM 34.0705 114.0546 297° West  Level Estimated
Sun 08:52:00 AM 34.1098 113.9591 296° West  Level Estimated
Sun 08:53:00 AM 34.1491 113.8636 296° West  Level Estimated
Sun 08:54:00 AM 34.1882 113.7679 296° West  Level Estimated
Sun 08:55:00 AM 34.2273 113.6722 296° West  Level Estimated
Sun 08:56:00 AM 34.2664 113.5764 296° West  Level Estimated
Sun 08:57:00 AM 34.3053 113.4805 296° West  Level Estimated
Sun 08:58:00 AM 34.3442 113.3846 296° West  Level Estimated
Sun 08:59:00 AM 34.3830 113.2885 296° West  Level Estimated
Sun 09:00:00 AM 34.4217 113.1923 296° West  Level Estimated
Sun 09:01:00 AM 34.4603 113.0961 296° West  Level Estimated
Sun 09:02:00 AM 34.4989 112.9997 296° West  Level Estimated
Sun 09:03:00 AM 34.5374 112.9033 296° West  Level Estimated
Sun 09:04:00 AM 34.5758 112.8068 296° West  Level Estimated
Sun 09:05:00 AM 34.6142 112.7102 296° West  Level Estimated
Sun 09:06:00 AM 34.6541 112.6092 296° West  Level Estimated
Sun 09:07:00 AM 34.6940 112.5081 296° West  Level Estimated
Sun 09:08:00 AM 34.7338 112.4069 296° West  Level Estimated
Sun 09:09:00 AM 34.7411 112.3883 296° West  Level Estimated
Sun 09:10:00 AM 34.7411 112.3883 68° East  Level Estimated
Sun 09:11:00 AM 34.7411 112.3883 68° East  Level Estimated
Sun 09:12:00 AM 34.7411 112.3883 68° East  Level Estimated
Sun 09:13:00 AM 34.7411 112.3883 68° East  Level Estimated
Sun 09:14:00 AM 34.7411 112.3883 68° East  Level Estimated
Sun 09:15:00 AM 34.7411 112.3883 68° East  Level Estimated

Login

Don't have an account? Register now (free) for customized features, flight alerts, and more!